Terminal Aerodrome Forecast
Issued by NWS Missoula, MT

Home | Current Version | Previous Version | Text Only | Print | Product List | Glossary On
Versions: 1 2 3 4 5 6 7 8 9 10 11 12
000
FTUS45 KMSO 162332
TAFGPI
TAF
KGPI 162332Z 1700/1724 18008KT P6SM BKN120
     FM170200 VRB03KT P6SM BKN120=

USA.gov is the U.S. government's official web portal to all federal, state and local government web resources and services.